sensor_id;sensor_type;location;lat;lon;timestamp;P1;durP1;ratioP1;P2;durP2;ratioP2
48951;SDS011;34758;42.148;24.744;2022-08-07T00:01:24;7.75;;;6.95;;
48951;SDS011;34758;42.148;24.744;2022-08-07T00:03:53;9.95;;;7.15;;
48951;SDS011;34758;42.148;24.744;2022-08-07T00:06:20;8.50;;;6.93;;
48951;SDS011;34758;42.148;24.744;2022-08-07T00:08:47;10.27;;;7.82;;
48951;SDS011;34758;42.148;24.744;2022-08-07T00:11:14;9.55;;;7.32;;
48951;SDS011;34758;42.148;24.744;2022-08-07T00:13:41;13.73;;;7.35;;
48951;SDS011;34758;42.148;24.744;2022-08-07T00:16:10;8.43;;;7.00;;
48951;SDS011;34758;42.148;24.744;2022-08-07T00:18:37;9.18;;;6.80;;
48951;SDS011;34758;42.148;24.744;2022-08-07T00:21:07;7.78;;;6.25;;
48951;SDS011;34758;42.148;24.744;2022-08-07T00:23:36;7.88;;;6.28;;
48951;SDS011;34758;42.148;24.744;2022-08-07T00:26:05;8.50;;;6.60;;
48951;SDS011;34758;42.148;24.744;2022-08-07T00:28:36;11.65;;;6.47;;
48951;SDS011;34758;42.148;24.744;2022-08-07T00:31:04;7.00;;;6.30;;
48951;SDS011;34758;42.148;24.744;2022-08-07T00:33:34;6.63;;;6.00;;
48951;SDS011;34758;42.148;24.744;2022-08-07T00:36:02;8.45;;;5.93;;
48951;SDS011;34758;42.148;24.744;2022-08-07T00:38:31;7.90;;;6.13;;
48951;SDS011;34758;42.148;24.744;2022-08-07T00:41:00;7.47;;;5.78;;
48951;SDS011;34758;42.148;24.744;2022-08-07T00:43:28;6.85;;;6.15;;
48951;SDS011;34758;42.148;24.744;2022-08-07T00:45:55;8.18;;;5.38;;
48951;SDS011;34758;42.148;24.744;2022-08-07T00:48:23;7.55;;;5.50;;
48951;SDS011;34758;42.148;24.744;2022-08-07T00:50:49;8.40;;;5.63;;
48951;SDS011;34758;42.148;24.744;2022-08-07T00:53:16;6.07;;;5.57;;
48951;SDS011;34758;42.148;24.744;2022-08-07T00:55:45;6.72;;;5.63;;
48951;SDS011;34758;42.148;24.744;2022-08-07T00:58:12;7.45;;;5.78;;
48951;SDS011;34758;42.148;24.744;2022-08-07T01:00:40;9.15;;;6.07;;
48951;SDS011;34758;42.148;24.744;2022-08-07T01:03:06;6.68;;;5.80;;
48951;SDS011;34758;42.148;24.744;2022-08-07T01:05:34;9.45;;;6.70;;
48951;SDS011;34758;42.148;24.744;2022-08-07T01:08:02;6.90;;;6.25;;
48951;SDS011;34758;42.148;24.744;2022-08-07T01:10:29;7.93;;;7.13;;
48951;SDS011;34758;42.148;24.744;2022-08-07T01:12:58;8.43;;;7.38;;
48951;SDS011;34758;42.148;24.744;2022-08-07T01:15:25;8.30;;;7.43;;
48951;SDS011;34758;42.148;24.744;2022-08-07T01:17:53;9.63;;;8.05;;
48951;SDS011;34758;42.148;24.744;2022-08-07T01:20:21;9.65;;;7.20;;
48951;SDS011;34758;42.148;24.744;2022-08-07T01:22:53;6.72;;;6.07;;
48951;SDS011;34758;42.148;24.744;2022-08-07T01:25:21;8.70;;;7.25;;
48951;SDS011;34758;42.148;24.744;2022-08-07T01:27:48;8.07;;;6.35;;
48951;SDS011;34758;42.148;24.744;2022-08-07T01:30:16;7.00;;;6.30;;
48951;SDS011;34758;42.148;24.744;2022-08-07T01:32:43;7.90;;;6.30;;
48951;SDS011;34758;42.148;24.744;2022-08-07T01:35:10;8.18;;;6.15;;
48951;SDS011;34758;42.148;24.744;2022-08-07T01:37:37;7.45;;;6.72;;
48951;SDS011;34758;42.148;24.744;2022-08-07T01:40:06;6.53;;;5.90;;
48951;SDS011;34758;42.148;24.744;2022-08-07T01:42:34;6.78;;;5.82;;
48951;SDS011;34758;42.148;24.744;2022-08-07T01:45:02;6.75;;;6.15;;
48951;SDS011;34758;42.148;24.744;2022-08-07T01:47:30;7.82;;;6.03;;
48951;SDS011;34758;42.148;24.744;2022-08-07T01:49:59;8.77;;;6.03;;
48951;SDS011;34758;42.148;24.744;2022-08-07T01:52:26;5.85;;;5.40;;
48951;SDS011;34758;42.148;24.744;2022-08-07T01:54:55;6.05;;;5.45;;
48951;SDS011;34758;42.148;24.744;2022-08-07T01:57:25;6.00;;;5.40;;
48951;SDS011;34758;42.148;24.744;2022-08-07T01:59:54;6.85;;;5.60;;
48951;SDS011;34758;42.148;24.744;2022-08-07T02:02:32;7.53;;;6.33;;
48951;SDS011;34758;42.148;24.744;2022-08-07T02:05:02;7.57;;;5.97;;
48951;SDS011;34758;42.148;24.744;2022-08-07T02:07:31;6.25;;;5.75;;
48951;SDS011;34758;42.148;24.744;2022-08-07T02:10:02;7.77;;;5.97;;
48951;SDS011;34758;42.148;24.744;2022-08-07T02:12:32;7.50;;;5.82;;
48951;SDS011;34758;42.148;24.744;2022-08-07T02:15:04;9.10;;;6.28;;
48951;SDS011;34758;42.148;24.744;2022-08-07T02:17:33;8.75;;;6.00;;
48951;SDS011;34758;42.148;24.744;2022-08-07T02:20:02;7.72;;;5.63;;
48951;SDS011;34758;42.148;24.744;2022-08-07T02:22:31;6.22;;;5.22;;
48951;SDS011;34758;42.148;24.744;2022-08-07T02:24:59;7.40;;;5.93;;
48951;SDS011;34758;42.148;24.744;2022-08-07T02:27:27;7.82;;;5.28;;
48951;SDS011;34758;42.148;24.744;2022-08-07T02:29:57;6.07;;;5.45;;
48951;SDS011;34758;42.148;24.744;2022-08-07T02:32:24;7.15;;;5.15;;
48951;SDS011;34758;42.148;24.744;2022-08-07T02:34:52;8.32;;;5.47;;
48951;SDS011;34758;42.148;24.744;2022-08-07T02:37:20;9.30;;;6.28;;
48951;SDS011;34758;42.148;24.744;2022-08-07T02:39:48;6.15;;;5.07;;
48951;SDS011;34758;42.148;24.744;2022-08-07T02:42:17;7.53;;;5.00;;
48951;SDS011;34758;42.148;24.744;2022-08-07T02:44:45;5.93;;;4.82;;
48951;SDS011;34758;42.148;24.744;2022-08-07T02:47:16;6.38;;;5.57;;
48951;SDS011;34758;42.148;24.744;2022-08-07T02:49:44;8.13;;;5.00;;
48951;SDS011;34758;42.148;24.744;2022-08-07T02:52:13;7.85;;;5.32;;
48951;SDS011;34758;42.148;24.744;2022-08-07T02:54:41;6.88;;;5.63;;
48951;SDS011;34758;42.148;24.744;2022-08-07T02:57:11;5.40;;;5.00;;
48951;SDS011;34758;42.148;24.744;2022-08-07T02:59:38;9.50;;;5.47;;
48951;SDS011;34758;42.148;24.744;2022-08-07T03:02:09;6.17;;;5.07;;
48951;SDS011;34758;42.148;24.744;2022-08-07T03:04:38;6.10;;;5.32;;
48951;SDS011;34758;42.148;24.744;2022-08-07T03:07:07;6.13;;;5.57;;
48951;SDS011;34758;42.148;24.744;2022-08-07T03:09:34;6.00;;;5.38;;
48951;SDS011;34758;42.148;24.744;2022-08-07T03:12:02;6.68;;;5.18;;
48951;SDS011;34758;42.148;24.744;2022-08-07T03:14:33;7.70;;;5.17;;
48951;SDS011;34758;42.148;24.744;2022-08-07T03:17:03;6.90;;;6.22;;
48951;SDS011;34758;42.148;24.744;2022-08-07T03:19:30;6.45;;;5.03;;
48951;SDS011;34758;42.148;24.744;2022-08-07T03:22:00;6.18;;;5.20;;
48951;SDS011;34758;42.148;24.744;2022-08-07T03:24:27;5.32;;;4.93;;
48951;SDS011;34758;42.148;24.744;2022-08-07T03:26:55;6.95;;;4.88;;
48951;SDS011;34758;42.148;24.744;2022-08-07T03:29:25;8.00;;;5.78;;
48951;SDS011;34758;42.148;24.744;2022-08-07T03:31:54;7.07;;;5.40;;
48951;SDS011;34758;42.148;24.744;2022-08-07T03:34:22;5.63;;;5.13;;
48951;SDS011;34758;42.148;24.744;2022-08-07T03:36:49;6.90;;;5.40;;
48951;SDS011;34758;42.148;24.744;2022-08-07T03:39:18;6.82;;;5.50;;
48951;SDS011;34758;42.148;24.744;2022-08-07T03:41:46;7.28;;;5.25;;
48951;SDS011;34758;42.148;24.744;2022-08-07T03:44:13;5.45;;;4.65;;
48951;SDS011;34758;42.148;24.744;2022-08-07T03:46:41;6.10;;;5.45;;
48951;SDS011;34758;42.148;24.744;2022-08-07T03:49:08;7.63;;;5.57;;
48951;SDS011;34758;42.148;24.744;2022-08-07T03:51:35;8.63;;;5.95;;
48951;SDS011;34758;42.148;24.744;2022-08-07T03:54:03;8.48;;;5.25;;
48951;SDS011;34758;42.148;24.744;2022-08-07T03:56:31;6.53;;;5.80;;
48951;SDS011;34758;42.148;24.744;2022-08-07T03:59:01;8.43;;;5.82;;
48951;SDS011;34758;42.148;24.744;2022-08-07T04:01:29;7.38;;;5.35;;
48951;SDS011;34758;42.148;24.744;2022-08-07T04:03:58;7.72;;;5.07;;
48951;SDS011;34758;42.148;24.744;2022-08-07T04:06:25;6.82;;;6.10;;
48951;SDS011;34758;42.148;24.744;2022-08-07T04:08:52;7.72;;;5.65;;
48951;SDS011;34758;42.148;24.744;2022-08-07T04:11:19;6.57;;;5.40;;
48951;SDS011;34758;42.148;24.744;2022-08-07T04:13:48;5.88;;;5.28;;
48951;SDS011;34758;42.148;24.744;2022-08-07T04:16:17;5.90;;;5.40;;
48951;SDS011;34758;42.148;24.744;2022-08-07T04:18:44;5.32;;;4.88;;
48951;SDS011;34758;42.148;24.744;2022-08-07T04:21:12;5.68;;;5.18;;
48951;SDS011;34758;42.148;24.744;2022-08-07T04:23:39;5.55;;;5.15;;
48951;SDS011;34758;42.148;24.744;2022-08-07T04:26:06;7.25;;;5.45;;
48951;SDS011;34758;42.148;24.744;2022-08-07T04:28:34;6.05;;;5.35;;
48951;SDS011;34758;42.148;24.744;2022-08-07T04:31:02;5.55;;;5.05;;
48951;SDS011;34758;42.148;24.744;2022-08-07T04:33:30;7.70;;;5.75;;
48951;SDS011;34758;42.148;24.744;2022-08-07T04:35:57;8.27;;;5.68;;
48951;SDS011;34758;42.148;24.744;2022-08-07T04:38:24;6.32;;;5.72;;
48951;SDS011;34758;42.148;24.744;2022-08-07T04:40:52;8.75;;;5.07;;
48951;SDS011;34758;42.148;24.744;2022-08-07T04:43:21;6.10;;;4.93;;
48951;SDS011;34758;42.148;24.744;2022-08-07T04:45:54;5.78;;;5.18;;
48951;SDS011;34758;42.148;24.744;2022-08-07T04:48:29;6.25;;;4.68;;
48951;SDS011;34758;42.148;24.744;2022-08-07T04:51:03;7.93;;;5.45;;
48951;SDS011;34758;42.148;24.744;2022-08-07T04:53:33;5.83;;;5.33;;
48951;SDS011;34758;42.148;24.744;2022-08-07T04:56:09;5.40;;;4.90;;
48951;SDS011;34758;42.148;24.744;2022-08-07T04:58:44;9.35;;;5.05;;
48951;SDS011;34758;42.148;24.744;2022-08-07T05:03:45;6.13;;;5.53;;
48951;SDS011;34758;42.148;24.744;2022-08-07T05:06:17;7.55;;;5.68;;
48951;SDS011;34758;42.148;24.744;2022-08-07T05:08:48;7.18;;;5.72;;
48951;SDS011;34758;42.148;24.744;2022-08-07T05:11:18;6.97;;;5.20;;
48951;SDS011;34758;42.148;24.744;2022-08-07T05:13:50;6.30;;;5.63;;
48951;SDS011;34758;42.148;24.744;2022-08-07T05:16:20;7.20;;;5.72;;
48951;SDS011;34758;42.148;24.744;2022-08-07T05:18:51;6.13;;;5.50;;
48951;SDS011;34758;42.148;24.744;2022-08-07T05:21:21;6.28;;;5.63;;
48951;SDS011;34758;42.148;24.744;2022-08-07T05:23:50;8.30;;;5.75;;
48951;SDS011;34758;42.148;24.744;2022-08-07T05:26:21;7.70;;;6.63;;
48951;SDS011;34758;42.148;24.744;2022-08-07T05:28:51;7.18;;;6.40;;
48951;SDS011;34758;42.148;24.744;2022-08-07T05:31:19;9.53;;;7.07;;
48951;SDS011;34758;42.148;24.744;2022-08-07T05:33:50;8.88;;;7.13;;
48951;SDS011;34758;42.148;24.744;2022-08-07T05:36:18;8.27;;;7.43;;
48951;SDS011;34758;42.148;24.744;2022-08-07T05:38:46;9.07;;;7.13;;
48951;SDS011;34758;42.148;24.744;2022-08-07T05:41:15;8.18;;;7.38;;
48951;SDS011;34758;42.148;24.744;2022-08-07T05:43:43;7.57;;;6.65;;
48951;SDS011;34758;42.148;24.744;2022-08-07T05:46:13;9.82;;;7.32;;
48951;SDS011;34758;42.148;24.744;2022-08-07T05:48:41;7.95;;;6.93;;
48951;SDS011;34758;42.148;24.744;2022-08-07T05:51:11;8.27;;;6.95;;
48951;SDS011;34758;42.148;24.744;2022-08-07T05:53:39;13.18;;;6.40;;
48951;SDS011;34758;42.148;24.744;2022-08-07T05:56:07;8.40;;;6.43;;
48951;SDS011;34758;42.148;24.744;2022-08-07T05:58:34;7.45;;;6.43;;
48951;SDS011;34758;42.148;24.744;2022-08-07T06:01:02;7.55;;;6.78;;
48951;SDS011;34758;42.148;24.744;2022-08-07T06:03:29;6.88;;;6.22;;
48951;SDS011;34758;42.148;24.744;2022-08-07T06:05:57;10.15;;;7.05;;
48951;SDS011;34758;42.148;24.744;2022-08-07T06:08:26;7.68;;;5.70;;
48951;SDS011;34758;42.148;24.744;2022-08-07T06:10:54;7.05;;;5.60;;
48951;SDS011;34758;42.148;24.744;2022-08-07T06:13:21;7.38;;;5.78;;
48951;SDS011;34758;42.148;24.744;2022-08-07T06:15:48;6.78;;;5.80;;
48951;SDS011;34758;42.148;24.744;2022-08-07T06:18:16;6.63;;;5.50;;
48951;SDS011;34758;42.148;24.744;2022-08-07T06:20:43;7.63;;;5.85;;
48951;SDS011;34758;42.148;24.744;2022-08-07T06:23:11;8.13;;;6.20;;
48951;SDS011;34758;42.148;24.744;2022-08-07T06:25:42;6.45;;;5.95;;
48951;SDS011;34758;42.148;24.744;2022-08-07T06:28:09;6.05;;;5.55;;
48951;SDS011;34758;42.148;24.744;2022-08-07T06:30:38;8.07;;;5.20;;
48951;SDS011;34758;42.148;24.744;2022-08-07T06:33:06;5.53;;;4.90;;
48951;SDS011;34758;42.148;24.744;2022-08-07T06:35:34;6.75;;;4.85;;
48951;SDS011;34758;42.148;24.744;2022-08-07T06:38:01;5.53;;;5.03;;
48951;SDS011;34758;42.148;24.744;2022-08-07T06:40:29;5.53;;;4.88;;
48951;SDS011;34758;42.148;24.744;2022-08-07T06:45:28;5.78;;;4.63;;
48951;SDS011;34758;42.148;24.744;2022-08-07T06:47:56;5.57;;;5.07;;
48951;SDS011;34758;42.148;24.744;2022-08-07T06:50:23;5.18;;;4.68;;
48951;SDS011;34758;42.148;24.744;2022-08-07T06:52:52;6.20;;;4.72;;
48951;SDS011;34758;42.148;24.744;2022-08-07T06:55:21;6.32;;;5.55;;
48951;SDS011;34758;42.148;24.744;2022-08-07T06:57:50;7.05;;;5.22;;
48951;SDS011;34758;42.148;24.744;2022-08-07T07:00:19;7.28;;;5.15;;
48951;SDS011;34758;42.148;24.744;2022-08-07T07:02:46;5.00;;;4.55;;
48951;SDS011;34758;42.148;24.744;2022-08-07T07:05:14;7.38;;;5.07;;
48951;SDS011;34758;42.148;24.744;2022-08-07T07:07:44;5.78;;;5.25;;
48951;SDS011;34758;42.148;24.744;2022-08-07T07:10:12;5.45;;;4.97;;
48951;SDS011;34758;42.148;24.744;2022-08-07T07:12:41;5.43;;;5.03;;
48951;SDS011;34758;42.148;24.744;2022-08-07T07:15:12;6.43;;;5.55;;
48951;SDS011;34758;42.148;24.744;2022-08-07T07:17:44;6.15;;;5.65;;
48951;SDS011;34758;42.148;24.744;2022-08-07T07:20:18;5.93;;;5.43;;
48951;SDS011;34758;42.148;24.744;2022-08-07T07:22:47;6.43;;;5.82;;
48951;SDS011;34758;42.148;24.744;2022-08-07T07:25:15;6.65;;;5.40;;
48951;SDS011;34758;42.148;24.744;2022-08-07T07:27:46;5.75;;;5.03;;
48951;SDS011;34758;42.148;24.744;2022-08-07T07:30:17;6.40;;;5.80;;
48951;SDS011;34758;42.148;24.744;2022-08-07T07:32:45;6.20;;;5.38;;
48951;SDS011;34758;42.148;24.744;2022-08-07T07:35:13;5.40;;;4.90;;
48951;SDS011;34758;42.148;24.744;2022-08-07T07:37:40;6.05;;;4.95;;
48951;SDS011;34758;42.148;24.744;2022-08-07T07:40:10;5.05;;;4.65;;
48951;SDS011;34758;42.148;24.744;2022-08-07T07:42:40;5.95;;;5.22;;
48951;SDS011;34758;42.148;24.744;2022-08-07T07:45:08;5.65;;;5.15;;
48951;SDS011;34758;42.148;24.744;2022-08-07T07:47:37;7.75;;;4.90;;
48951;SDS011;34758;42.148;24.744;2022-08-07T07:50:09;6.82;;;5.07;;
48951;SDS011;34758;42.148;24.744;2022-08-07T07:52:37;6.07;;;5.43;;
48951;SDS011;34758;42.148;24.744;2022-08-07T07:55:07;5.90;;;4.93;;
48951;SDS011;34758;42.148;24.744;2022-08-07T07:57:35;5.93;;;5.32;;
48951;SDS011;34758;42.148;24.744;2022-08-07T08:00:03;5.20;;;4.78;;
48951;SDS011;34758;42.148;24.744;2022-08-07T08:02:33;6.10;;;5.55;;
48951;SDS011;34758;42.148;24.744;2022-08-07T08:05:01;7.47;;;5.13;;
48951;SDS011;34758;42.148;24.744;2022-08-07T08:07:31;8.45;;;5.63;;
48951;SDS011;34758;42.148;24.744;2022-08-07T08:10:00;6.57;;;4.83;;
48951;SDS011;34758;42.148;24.744;2022-08-07T08:12:30;5.63;;;5.07;;
48951;SDS011;34758;42.148;24.744;2022-08-07T08:14:58;5.00;;;4.55;;
48951;SDS011;34758;42.148;24.744;2022-08-07T08:17:26;5.70;;;5.18;;
48951;SDS011;34758;42.148;24.744;2022-08-07T08:19:55;5.70;;;5.20;;
48951;SDS011;34758;42.148;24.744;2022-08-07T08:25:10;6.00;;;4.95;;
48951;SDS011;34758;42.148;24.744;2022-08-07T08:27:54;6.28;;;5.68;;
48951;SDS011;34758;42.148;24.744;2022-08-07T08:30:22;7.07;;;5.30;;
48951;SDS011;34758;42.148;24.744;2022-08-07T08:32:51;6.00;;;5.45;;
48951;SDS011;34758;42.148;24.744;2022-08-07T08:35:19;5.63;;;5.13;;
48951;SDS011;34758;42.148;24.744;2022-08-07T08:37:49;5.82;;;5.32;;
48951;SDS011;34758;42.148;24.744;2022-08-07T08:40:20;6.40;;;5.90;;
48951;SDS011;34758;42.148;24.744;2022-08-07T08:42:51;6.68;;;6.13;;
48951;SDS011;34758;42.148;24.744;2022-08-07T08:45:22;6.28;;;5.78;;
48951;SDS011;34758;42.148;24.744;2022-08-07T08:47:55;5.85;;;5.30;;
48951;SDS011;34758;42.148;24.744;2022-08-07T08:50:30;5.88;;;5.32;;
48951;SDS011;34758;42.148;24.744;2022-08-07T08:53:02;6.85;;;5.93;;
48951;SDS011;34758;42.148;24.744;2022-08-07T08:55:36;5.27;;;4.70;;
48951;SDS011;34758;42.148;24.744;2022-08-07T08:58:05;4.95;;;4.55;;
48951;SDS011;34758;42.148;24.744;2022-08-07T09:00:39;5.72;;;4.85;;
48951;SDS011;34758;42.148;24.744;2022-08-07T09:03:12;5.00;;;4.57;;
48951;SDS011;34758;42.148;24.744;2022-08-07T09:05:45;5.30;;;4.57;;
48951;SDS011;34758;42.148;24.744;2022-08-07T09:08:18;4.95;;;4.55;;
48951;SDS011;34758;42.148;24.744;2022-08-07T09:10:55;4.68;;;4.30;;
48951;SDS011;34758;42.148;24.744;2022-08-07T09:13:29;4.05;;;3.75;;
48951;SDS011;34758;42.148;24.744;2022-08-07T09:16:01;6.20;;;3.60;;
48951;SDS011;34758;42.148;24.744;2022-08-07T09:18:35;5.00;;;4.60;;
48951;SDS011;34758;42.148;24.744;2022-08-07T09:21:27;6.40;;;5.03;;
48951;SDS011;34758;42.148;24.744;2022-08-07T09:24:01;4.05;;;3.75;;
48951;SDS011;34758;42.148;24.744;2022-08-07T09:26:37;3.83;;;3.53;;
48951;SDS011;34758;42.148;24.744;2022-08-07T09:29:12;3.63;;;3.33;;
48951;SDS011;34758;42.148;24.744;2022-08-07T09:31:50;4.25;;;3.65;;
48951;SDS011;34758;42.148;24.744;2022-08-07T09:34:21;4.30;;;3.92;;
48951;SDS011;34758;42.148;24.744;2022-08-07T09:36:54;3.88;;;3.58;;
48951;SDS011;34758;42.148;24.744;2022-08-07T09:39:30;4.05;;;3.50;;
48951;SDS011;34758;42.148;24.744;2022-08-07T09:42:08;3.72;;;3.33;;
48951;SDS011;34758;42.148;24.744;2022-08-07T09:44:45;4.60;;;4.20;;
48951;SDS011;34758;42.148;24.744;2022-08-07T09:47:16;4.22;;;3.92;;
48951;SDS011;34758;42.148;24.744;2022-08-07T09:49:53;3.63;;;3.33;;
48951;SDS011;34758;42.148;24.744;2022-08-07T09:52:25;4.25;;;3.50;;
48951;SDS011;34758;42.148;24.744;2022-08-07T09:54:56;4.22;;;3.47;;
48951;SDS011;34758;42.148;24.744;2022-08-07T10:00:53;4.33;;;3.20;;
48951;SDS011;34758;42.148;24.744;2022-08-07T10:03:32;4.50;;;4.03;;
48951;SDS011;34758;42.148;24.744;2022-08-07T10:06:19;3.97;;;3.55;;
48951;SDS011;34758;42.148;24.744;2022-08-07T10:11:54;3.33;;;3.03;;
48951;SDS011;34758;42.148;24.744;2022-08-07T10:20:21;4.60;;;3.35;;
48951;SDS011;34758;42.148;24.744;2022-08-07T10:22:56;3.17;;;2.88;;
48951;SDS011;34758;42.148;24.744;2022-08-07T10:25:38;3.25;;;3.05;;
48951;SDS011;34758;42.148;24.744;2022-08-07T10:28:28;3.58;;;3.28;;
48951;SDS011;34758;42.148;24.744;2022-08-07T10:31:06;4.03;;;2.83;;
48951;SDS011;34758;42.148;24.744;2022-08-07T10:33:59;3.42;;;3.22;;
48951;SDS011;34758;42.148;24.744;2022-08-07T10:36:37;3.50;;;3.20;;
48951;SDS011;34758;42.148;24.744;2022-08-07T10:39:16;3.80;;;3.20;;
48951;SDS011;34758;42.148;24.744;2022-08-07T10:41:53;2.73;;;2.53;;
48951;SDS011;34758;42.148;24.744;2022-08-07T10:44:31;2.67;;;2.47;;
48951;SDS011;34758;42.148;24.744;2022-08-07T10:47:04;3.05;;;2.42;;
48951;SDS011;34758;42.148;24.744;2022-08-07T10:49:42;2.92;;;2.45;;
48951;SDS011;34758;42.148;24.744;2022-08-07T10:52:14;3.17;;;2.88;;
48951;SDS011;34758;42.148;24.744;2022-08-07T10:54:47;4.90;;;2.38;;
48951;SDS011;34758;42.148;24.744;2022-08-07T10:57:21;2.95;;;2.67;;
48951;SDS011;34758;42.148;24.744;2022-08-07T10:59:58;2.65;;;2.45;;
48951;SDS011;34758;42.148;24.744;2022-08-07T11:02:32;5.30;;;3.28;;
48951;SDS011;34758;42.148;24.744;2022-08-07T11:07:57;2.67;;;2.30;;
48951;SDS011;34758;42.148;24.744;2022-08-07T11:10:30;4.57;;;2.55;;
48951;SDS011;34758;42.148;24.744;2022-08-07T11:13:01;2.67;;;2.47;;
48951;SDS011;34758;42.148;24.744;2022-08-07T11:15:34;3.33;;;2.78;;
48951;SDS011;34758;42.148;24.744;2022-08-07T11:18:05;3.50;;;2.85;;
48951;SDS011;34758;42.148;24.744;2022-08-07T11:20:40;2.90;;;2.63;;
48951;SDS011;34758;42.148;24.744;2022-08-07T11:23:13;4.47;;;2.90;;
48951;SDS011;34758;42.148;24.744;2022-08-07T11:25:46;3.33;;;2.75;;
48951;SDS011;34758;42.148;24.744;2022-08-07T11:28:18;2.50;;;2.30;;
48951;SDS011;34758;42.148;24.744;2022-08-07T11:30:48;2.75;;;2.50;;
48951;SDS011;34758;42.148;24.744;2022-08-07T11:33:22;3.63;;;2.50;;
48951;SDS011;34758;42.148;24.744;2022-08-07T11:35:56;3.13;;;2.55;;
48951;SDS011;34758;42.148;24.744;2022-08-07T11:38:29;3.75;;;2.70;;
48951;SDS011;34758;42.148;24.744;2022-08-07T11:40:59;2.65;;;2.45;;
48951;SDS011;34758;42.148;24.744;2022-08-07T11:43:29;2.33;;;2.17;;
48951;SDS011;34758;42.148;24.744;2022-08-07T11:46:08;2.38;;;2.28;;
48951;SDS011;34758;42.148;24.744;2022-08-07T11:51:33;3.30;;;2.60;;
48951;SDS011;34758;42.148;24.744;2022-08-07T11:54:17;3.20;;;2.90;;
48951;SDS011;34758;42.148;24.744;2022-08-07T11:56:52;3.15;;;2.83;;
48951;SDS011;34758;42.148;24.744;2022-08-07T11:59:34;2.67;;;2.47;;
48951;SDS011;34758;42.148;24.744;2022-08-07T12:02:11;2.58;;;2.45;;
48951;SDS011;34758;42.148;24.744;2022-08-07T12:04:46;5.05;;;2.75;;
48951;SDS011;34758;42.148;24.744;2022-08-07T12:07:29;4.18;;;2.97;;
48951;SDS011;34758;42.148;24.744;2022-08-07T12:10:01;3.65;;;3.35;;
48951;SDS011;34758;42.148;24.744;2022-08-07T12:15:01;6.00;;;4.20;;
48951;SDS011;34758;42.148;24.744;2022-08-07T12:17:31;4.40;;;4.00;;
48951;SDS011;34758;42.148;24.744;2022-08-07T12:20:05;4.30;;;3.90;;
48951;SDS011;34758;42.148;24.744;2022-08-07T12:22:40;4.50;;;4.07;;
48951;SDS011;34758;42.148;24.744;2022-08-07T12:25:12;4.32;;;3.60;;
48951;SDS011;34758;42.148;24.744;2022-08-07T12:28:02;7.80;;;4.57;;
48951;SDS011;34758;42.148;24.744;2022-08-07T12:30:33;5.22;;;4.43;;
48951;SDS011;34758;42.148;24.744;2022-08-07T12:33:03;5.40;;;4.68;;
48951;SDS011;34758;42.148;24.744;2022-08-07T12:35:32;7.85;;;4.65;;
48951;SDS011;34758;42.148;24.744;2022-08-07T12:38:01;6.88;;;4.85;;
48951;SDS011;34758;42.148;24.744;2022-08-07T12:40:29;4.50;;;4.10;;
48951;SDS011;34758;42.148;24.744;2022-08-07T12:42:59;4.80;;;3.95;;
48951;SDS011;34758;42.148;24.744;2022-08-07T12:45:30;6.88;;;3.72;;
48951;SDS011;34758;42.148;24.744;2022-08-07T12:48:01;8.38;;;4.40;;
48951;SDS011;34758;42.148;24.744;2022-08-07T12:50:31;4.35;;;3.95;;
48951;SDS011;34758;42.148;24.744;2022-08-07T12:53:03;4.18;;;3.78;;
48951;SDS011;34758;42.148;24.744;2022-08-07T12:55:39;5.13;;;4.07;;
48951;SDS011;34758;42.148;24.744;2022-08-07T12:58:08;4.53;;;4.03;;
48951;SDS011;34758;42.148;24.744;2022-08-07T13:00:39;4.93;;;4.53;;
48951;SDS011;34758;42.148;24.744;2022-08-07T13:03:21;6.50;;;4.20;;
48951;SDS011;34758;42.148;24.744;2022-08-07T13:06:08;5.65;;;4.90;;
48951;SDS011;34758;42.148;24.744;2022-08-07T13:08:47;5.25;;;4.40;;
48951;SDS011;34758;42.148;24.744;2022-08-07T13:11:24;4.78;;;4.35;;
48951;SDS011;34758;42.148;24.744;2022-08-07T13:14:05;4.75;;;4.35;;
48951;SDS011;34758;42.148;24.744;2022-08-07T13:16:36;4.13;;;3.78;;
48951;SDS011;34758;42.148;24.744;2022-08-07T13:19:11;4.93;;;4.53;;
48951;SDS011;34758;42.148;24.744;2022-08-07T13:21:47;6.57;;;5.13;;
48951;SDS011;34758;42.148;24.744;2022-08-07T13:24:20;7.00;;;5.82;;
48951;SDS011;34758;42.148;24.744;2022-08-07T13:26:51;6.30;;;5.10;;
48951;SDS011;34758;42.148;24.744;2022-08-07T13:29:22;5.63;;;5.10;;
48951;SDS011;34758;42.148;24.744;2022-08-07T13:31:52;6.22;;;5.43;;
48951;SDS011;34758;42.148;24.744;2022-08-07T13:34:27;5.60;;;4.60;;
48951;SDS011;34758;42.148;24.744;2022-08-07T13:37:02;6.53;;;5.65;;
48951;SDS011;34758;42.148;24.744;2022-08-07T13:39:38;6.85;;;5.40;;
48951;SDS011;34758;42.148;24.744;2022-08-07T13:42:11;7.70;;;6.18;;
48951;SDS011;34758;42.148;24.744;2022-08-07T13:44:39;5.70;;;5.20;;
48951;SDS011;34758;42.148;24.744;2022-08-07T13:47:08;8.75;;;5.45;;
48951;SDS011;34758;42.148;24.744;2022-08-07T13:49:37;6.63;;;6.00;;
48951;SDS011;34758;42.148;24.744;2022-08-07T13:52:05;6.00;;;5.40;;
48951;SDS011;34758;42.148;24.744;2022-08-07T13:54:33;7.03;;;5.93;;
48951;SDS011;34758;42.148;24.744;2022-08-07T13:57:03;6.85;;;6.15;;
48951;SDS011;34758;42.148;24.744;2022-08-07T13:59:36;6.53;;;5.93;;
48951;SDS011;34758;42.148;24.744;2022-08-07T14:02:06;6.15;;;5.55;;
48951;SDS011;34758;42.148;24.744;2022-08-07T14:04:47;5.57;;;5.07;;
48951;SDS011;34758;42.148;24.744;2022-08-07T14:07:18;6.40;;;4.93;;
48951;SDS011;34758;42.148;24.744;2022-08-07T14:09:46;5.97;;;5.40;;
48951;SDS011;34758;42.148;24.744;2022-08-07T14:12:21;7.00;;;5.07;;
48951;SDS011;34758;42.148;24.744;2022-08-07T14:14:51;10.77;;;4.53;;
48951;SDS011;34758;42.148;24.744;2022-08-07T14:17:22;7.82;;;5.10;;
48951;SDS011;34758;42.148;24.744;2022-08-07T14:19:51;7.43;;;5.10;;
48951;SDS011;34758;42.148;24.744;2022-08-07T14:22:22;9.18;;;5.25;;
48951;SDS011;34758;42.148;24.744;2022-08-07T14:24:53;9.13;;;4.72;;
48951;SDS011;34758;42.148;24.744;2022-08-07T14:27:28;8.05;;;4.75;;
48951;SDS011;34758;42.148;24.744;2022-08-07T14:30:00;8.57;;;4.80;;
48951;SDS011;34758;42.148;24.744;2022-08-07T14:32:29;5.43;;;4.63;;
48951;SDS011;34758;42.148;24.744;2022-08-07T14:34:56;5.07;;;4.57;;
48951;SDS011;34758;42.148;24.744;2022-08-07T14:37:25;7.80;;;4.70;;
48951;SDS011;34758;42.148;24.744;2022-08-07T14:39:53;6.85;;;4.13;;
48951;SDS011;34758;42.148;24.744;2022-08-07T14:42:22;7.20;;;4.53;;
48951;SDS011;34758;42.148;24.744;2022-08-07T14:44:55;4.30;;;3.90;;
48951;SDS011;34758;42.148;24.744;2022-08-07T14:47:24;5.95;;;4.57;;
48951;SDS011;34758;42.148;24.744;2022-08-07T14:49:51;6.55;;;4.82;;
48951;SDS011;34758;42.148;24.744;2022-08-07T14:52:19;4.80;;;4.40;;
48951;SDS011;34758;42.148;24.744;2022-08-07T14:54:47;4.88;;;3.88;;
48951;SDS011;34758;42.148;24.744;2022-08-07T14:57:16;5.28;;;3.88;;
48951;SDS011;34758;42.148;24.744;2022-08-07T14:59:43;5.97;;;5.25;;
48951;SDS011;34758;42.148;24.744;2022-08-07T15:02:14;6.25;;;4.43;;
48951;SDS011;34758;42.148;24.744;2022-08-07T15:04:43;4.27;;;3.87;;
48951;SDS011;34758;42.148;24.744;2022-08-07T15:07:16;5.38;;;4.22;;
48951;SDS011;34758;42.148;24.744;2022-08-07T15:09:48;4.80;;;4.25;;
48951;SDS011;34758;42.148;24.744;2022-08-07T15:12:18;4.90;;;3.85;;
48951;SDS011;34758;42.148;24.744;2022-08-07T15:14:48;4.55;;;4.05;;
48951;SDS011;34758;42.148;24.744;2022-08-07T15:17:19;5.20;;;4.28;;
48951;SDS011;34758;42.148;24.744;2022-08-07T15:19:56;6.22;;;5.72;;
48951;SDS011;34758;42.148;24.744;2022-08-07T15:22:27;37.50;;;33.78;;